createdAt,value
2016-12-29T00:00:21.672Z,0
2016-12-29T00:01:21.786Z,0
2016-12-29T00:02:21.636Z,0
2016-12-29T00:03:21.797Z,0
2016-12-29T00:04:21.901Z,0
2016-12-29T00:05:21.902Z,0
2016-12-29T00:06:21.571Z,0
2016-12-29T00:07:21.569Z,0
2016-12-29T00:08:21.703Z,0
2016-12-29T00:09:21.539Z,0
2016-12-29T00:10:21.571Z,0
2016-12-29T00:11:21.554Z,0
2016-12-29T00:12:21.606Z,0
2016-12-29T00:13:21.525Z,0
2016-12-29T00:14:21.527Z,0
2016-12-29T00:15:21.596Z,0
2016-12-29T00:16:21.530Z,0
2016-12-29T00:17:21.625Z,0
2016-12-29T00:18:21.603Z,0
2016-12-29T00:19:21.522Z,0
2016-12-29T00:20:21.529Z,0
2016-12-29T00:21:21.514Z,0
2016-12-29T00:22:21.526Z,0
2016-12-29T00:23:21.588Z,0
2016-12-29T00:24:21.527Z,0
2016-12-29T00:25:21.535Z,0
2016-12-29T00:26:21.542Z,0
2016-12-29T00:27:21.569Z,0
2016-12-29T00:28:21.620Z,0
2016-12-29T00:29:21.577Z,0
2016-12-29T00:30:21.583Z,0
2016-12-29T00:31:21.598Z,0
2016-12-29T00:32:21.638Z,0
2016-12-29T00:33:23.052Z,0
2016-12-29T00:34:21.611Z,0
2016-12-29T00:35:21.580Z,0
2016-12-29T00:36:21.618Z,0
2016-12-29T00:37:21.611Z,0
2016-12-29T00:38:22.538Z,0
2016-12-29T00:39:21.660Z,0
2016-12-29T00:40:21.528Z,0
2016-12-29T00:41:21.550Z,0
2016-12-29T00:42:21.544Z,0
2016-12-29T00:43:21.564Z,0
2016-12-29T00:44:21.543Z,0
2016-12-29T00:45:21.521Z,0
2016-12-29T00:46:21.553Z,0
2016-12-29T00:47:21.587Z,0
2016-12-29T00:48:21.565Z,0
2016-12-29T00:49:22.000Z,0
2016-12-29T00:50:21.879Z,0
2016-12-29T00:51:21.620Z,0
2016-12-29T00:52:21.608Z,0
2016-12-29T00:53:21.751Z,0
2016-12-29T00:54:21.598Z,0
2016-12-29T00:55:21.575Z,0
2016-12-29T00:56:22.191Z,0
2016-12-29T00:57:21.645Z,0
2016-12-29T00:58:22.289Z,0
2016-12-29T00:59:21.575Z,0
2016-12-29T01:00:21.815Z,0
2016-12-29T01:01:21.584Z,0
2016-12-29T01:02:21.658Z,0
2016-12-29T01:03:22.020Z,0
2016-12-29T01:04:21.596Z,0
2016-12-29T01:05:21.580Z,0
2016-12-29T01:06:21.690Z,0
2016-12-29T01:07:21.580Z,0
2016-12-29T01:08:21.793Z,0
2016-12-29T01:09:21.561Z,0
2016-12-29T01:10:21.545Z,0
2016-12-29T01:11:21.574Z,0
2016-12-29T01:12:21.579Z,0
2016-12-29T01:13:21.574Z,0
2016-12-29T01:14:21.542Z,0
2016-12-29T01:15:21.543Z,0
2016-12-29T01:16:21.550Z,0
2016-12-29T01:17:21.589Z,0
2016-12-29T01:18:21.594Z,0
2016-12-29T01:19:21.573Z,0
2016-12-29T01:20:22.207Z,0
2016-12-29T01:21:21.600Z,0
2016-12-29T01:22:21.589Z,0
2016-12-29T01:23:21.962Z,0
2016-12-29T01:24:21.954Z,0
2016-12-29T01:25:21.658Z,0
2016-12-29T01:26:21.578Z,0
2016-12-29T01:27:21.635Z,0
2016-12-29T01:28:21.836Z,0
2016-12-29T01:29:21.614Z,0
2016-12-29T01:30:21.786Z,0
2016-12-29T01:31:21.998Z,0
2016-12-29T01:32:21.669Z,0
2016-12-29T01:33:21.894Z,0
2016-12-29T01:34:21.681Z,0
2016-12-29T01:35:21.657Z,0
2016-12-29T01:36:21.664Z,0
2016-12-29T01:37:21.657Z,0
2016-12-29T01:38:21.663Z,0
2016-12-29T01:39:21.689Z,0
2016-12-29T01:40:21.611Z,0
2016-12-29T01:41:21.685Z,0
2016-12-29T01:42:22.239Z,0
2016-12-29T01:43:21.674Z,0
2016-12-29T01:44:21.651Z,0
2016-12-29T01:45:21.752Z,0
2016-12-29T01:46:21.652Z,0
2016-12-29T01:47:21.680Z,0
2016-12-29T01:48:21.618Z,0
2016-12-29T01:49:21.607Z,0
2016-12-29T01:50:21.584Z,0
2016-12-29T01:51:21.564Z,0
2016-12-29T01:52:21.597Z,0
2016-12-29T01:53:21.616Z,0
2016-12-29T01:54:21.595Z,0
2016-12-29T01:55:21.590Z,0
2016-12-29T01:56:21.605Z,0
2016-12-29T01:57:21.590Z,0
2016-12-29T01:58:21.620Z,0
2016-12-29T01:59:21.659Z,0
2016-12-29T02:00:21.601Z,0
2016-12-29T02:01:21.607Z,0
2016-12-29T02:02:21.638Z,0
2016-12-29T02:03:21.598Z,0
2016-12-29T02:04:21.599Z,0
2016-12-29T02:05:21.607Z,0
2016-12-29T02:06:21.613Z,0
2016-12-29T02:07:21.590Z,0
2016-12-29T02:08:21.642Z,0
2016-12-29T02:09:21.590Z,0
2016-12-29T02:10:21.635Z,0
2016-12-29T02:11:21.666Z,0
2016-12-29T02:12:21.640Z,0
2016-12-29T02:13:21.653Z,0
2016-12-29T02:14:21.595Z,0
2016-12-29T02:15:21.612Z,0
2016-12-29T02:16:21.574Z,0
2016-12-29T02:17:21.651Z,0
2016-12-29T02:18:21.620Z,0
2016-12-29T02:19:21.589Z,0
2016-12-29T02:20:21.606Z,0
2016-12-29T02:21:21.612Z,0
2016-12-29T02:22:21.663Z,0
2016-12-29T02:23:21.640Z,0
2016-12-29T02:24:21.665Z,0
2016-12-29T02:25:21.611Z,0
2016-12-29T02:26:21.632Z,0
2016-12-29T02:27:21.616Z,0
2016-12-29T02:28:21.609Z,0
2016-12-29T02:29:21.596Z,0
2016-12-29T02:30:21.616Z,0
2016-12-29T02:31:21.614Z,0
2016-12-29T02:32:21.665Z,0
2016-12-29T02:33:21.673Z,0
2016-12-29T02:34:21.638Z,0
2016-12-29T02:35:21.640Z,0
2016-12-29T02:36:21.616Z,0
2016-12-29T02:37:21.650Z,0
2016-12-29T02:38:21.851Z,0
2016-12-29T02:39:21.624Z,0
2016-12-29T02:40:21.673Z,0
2016-12-29T02:41:21.629Z,0
2016-12-29T02:42:21.634Z,0
2016-12-29T02:43:21.654Z,0
2016-12-29T02:44:21.625Z,0
2016-12-29T02:45:21.631Z,0
2016-12-29T02:46:21.623Z,0
2016-12-29T02:47:21.675Z,0
2016-12-29T02:48:21.665Z,0
2016-12-29T02:49:21.634Z,0
2016-12-29T02:50:21.629Z,0
2016-12-29T02:51:21.635Z,0
2016-12-29T02:52:21.632Z,0
2016-12-29T02:53:21.742Z,0
2016-12-29T02:54:21.716Z,0
2016-12-29T02:55:21.630Z,0
2016-12-29T02:56:21.683Z,0
2016-12-29T02:57:21.616Z,0
2016-12-29T02:58:21.638Z,0
2016-12-29T02:59:21.618Z,0
2016-12-29T03:00:21.638Z,0
2016-12-29T03:01:21.631Z,0
2016-12-29T03:02:21.683Z,0
2016-12-29T03:03:21.674Z,0
2016-12-29T03:04:21.668Z,0
2016-12-29T03:05:21.642Z,0
2016-12-29T03:06:21.637Z,0
2016-12-29T03:07:21.610Z,0
2016-12-29T03:08:21.678Z,0
2016-12-29T03:09:21.656Z,0
2016-12-29T03:10:21.633Z,0
2016-12-29T03:11:21.669Z,0
2016-12-29T03:12:21.662Z,0
2016-12-29T03:13:21.683Z,0
2016-12-29T03:14:21.677Z,0
2016-12-29T03:15:21.715Z,0
2016-12-29T03:16:21.721Z,0
2016-12-29T03:17:21.731Z,0
2016-12-29T03:18:21.701Z,0
2016-12-29T03:19:21.693Z,0
2016-12-29T03:20:21.646Z,0
2016-12-29T03:21:21.664Z,0
2016-12-29T03:22:21.639Z,0
2016-12-29T03:23:21.663Z,0
2016-12-29T03:24:21.651Z,0
2016-12-29T03:25:21.633Z,0
2016-12-29T03:26:21.621Z,0
2016-12-29T03:27:21.643Z,0
2016-12-29T03:28:21.718Z,0
2016-12-29T03:29:21.627Z,0
2016-12-29T03:30:21.649Z,0
2016-12-29T03:31:21.685Z,0
2016-12-29T03:32:21.648Z,0
2016-12-29T03:33:21.698Z,0
2016-12-29T03:34:21.661Z,0
2016-12-29T03:35:21.685Z,0
2016-12-29T03:36:21.691Z,0
2016-12-29T03:37:21.694Z,0
2016-12-29T03:38:21.696Z,0
2016-12-29T03:39:21.639Z,0
2016-12-29T03:40:21.647Z,0
2016-12-29T03:41:21.642Z,0
2016-12-29T03:42:21.646Z,0
2016-12-29T03:43:21.674Z,0
2016-12-29T03:44:21.697Z,0
2016-12-29T03:45:21.669Z,0
2016-12-29T03:46:21.686Z,0
2016-12-29T03:47:21.716Z,0
2016-12-29T03:48:21.678Z,0
2016-12-29T03:49:21.720Z,0
2016-12-29T03:50:21.696Z,0
2016-12-29T03:51:21.696Z,0
2016-12-29T03:52:21.675Z,0
2016-12-29T03:53:21.703Z,0
2016-12-29T03:54:21.688Z,0
2016-12-29T03:55:21.737Z,0
2016-12-29T03:56:21.712Z,0
2016-12-29T03:57:21.756Z,0
2016-12-29T03:58:21.728Z,0
2016-12-29T03:59:21.731Z,0
2016-12-29T04:00:21.710Z,0
2016-12-29T04:01:21.797Z,0
2016-12-29T04:02:21.727Z,0
2016-12-29T04:03:21.675Z,0
2016-12-29T04:04:21.666Z,0
2016-12-29T04:05:21.674Z,0
2016-12-29T04:06:21.702Z,0
2016-12-29T04:07:21.657Z,0
2016-12-29T04:08:21.653Z,0
2016-12-29T04:09:21.687Z,0
2016-12-29T04:10:21.683Z,0
2016-12-29T04:11:21.689Z,0
2016-12-29T04:12:21.686Z,0
2016-12-29T04:13:21.717Z,0
2016-12-29T04:14:21.689Z,0
2016-12-29T04:15:21.716Z,0
2016-12-29T04:16:21.725Z,0
2016-12-29T04:17:21.746Z,0
2016-12-29T04:18:21.698Z,0
2016-12-29T04:19:21.677Z,0
2016-12-29T04:20:21.707Z,0
2016-12-29T04:21:21.703Z,0
2016-12-29T04:22:21.670Z,0
2016-12-29T04:23:21.706Z,0
2016-12-29T04:24:21.686Z,0
2016-12-29T04:25:21.675Z,0
2016-12-29T04:26:21.697Z,0
2016-12-29T04:27:21.723Z,0
2016-12-29T04:28:21.700Z,0
2016-12-29T04:29:21.750Z,0
2016-12-29T04:30:21.694Z,0
2016-12-29T04:31:21.701Z,0
2016-12-29T04:32:21.769Z,0
2016-12-29T04:33:21.726Z,0
2016-12-29T04:34:21.679Z,0
2016-12-29T04:35:21.729Z,0
2016-12-29T04:36:21.704Z,0
2016-12-29T04:37:21.683Z,0
2016-12-29T04:38:21.690Z,0
2016-12-29T04:39:21.711Z,0
2016-12-29T04:40:21.704Z,0
2016-12-29T04:41:21.726Z,0
2016-12-29T04:42:21.705Z,0
2016-12-29T04:43:21.729Z,0
2016-12-29T04:44:21.709Z,0
2016-12-29T04:45:21.712Z,0
2016-12-29T04:46:21.734Z,0
2016-12-29T04:47:21.710Z,0
2016-12-29T04:48:21.733Z,0
2016-12-29T04:49:21.726Z,0
2016-12-29T04:50:21.711Z,0
2016-12-29T04:51:21.694Z,0
2016-12-29T04:52:21.730Z,0
2016-12-29T04:53:21.747Z,0
2016-12-29T04:54:21.720Z,0
2016-12-29T04:55:21.710Z,0
2016-12-29T04:56:21.706Z,0
2016-12-29T04:57:21.735Z,0
2016-12-29T04:58:21.743Z,0
2016-12-29T04:59:21.692Z,0
2016-12-29T05:00:21.726Z,0
2016-12-29T05:01:21.751Z,0
2016-12-29T05:02:21.713Z,0
2016-12-29T05:03:21.719Z,0
2016-12-29T05:04:21.697Z,0
2016-12-29T05:05:21.734Z,0
2016-12-29T05:06:21.698Z,0
2016-12-29T05:07:21.690Z,0
2016-12-29T05:08:21.723Z,0
2016-12-29T05:09:21.700Z,0
2016-12-29T05:10:21.707Z,0
2016-12-29T05:11:21.684Z,0
2016-12-29T05:12:21.693Z,0
2016-12-29T05:13:21.742Z,0
2016-12-29T05:14:21.722Z,0
2016-12-29T05:15:21.750Z,0
2016-12-29T05:16:21.716Z,0
2016-12-29T05:17:21.801Z,0
2016-12-29T05:18:21.727Z,0
2016-12-29T05:19:21.751Z,0
2016-12-29T05:20:21.757Z,0
2016-12-29T05:21:21.764Z,0
2016-12-29T05:22:21.744Z,0
2016-12-29T05:23:21.739Z,0
2016-12-29T05:24:21.738Z,0
2016-12-29T05:25:21.731Z,0
2016-12-29T05:26:21.783Z,0
2016-12-29T05:27:21.715Z,0
2016-12-29T05:28:21.742Z,0
2016-12-29T05:29:21.749Z,0
2016-12-29T05:30:21.767Z,0
2016-12-29T05:31:21.764Z,0
2016-12-29T05:32:21.795Z,0
2016-12-29T05:33:21.707Z,0
2016-12-29T05:34:21.710Z,0
2016-12-29T05:35:21.747Z,0
2016-12-29T05:36:21.725Z,0
2016-12-29T05:37:21.782Z,0
2016-12-29T05:38:21.752Z,0
2016-12-29T05:39:21.754Z,0
2016-12-29T05:40:21.754Z,0
2016-12-29T05:41:21.745Z,0
2016-12-29T05:42:21.767Z,0
2016-12-29T05:43:22.511Z,0
2016-12-29T05:44:21.749Z,0
2016-12-29T05:45:21.733Z,0
2016-12-29T05:46:21.718Z,0
2016-12-29T05:47:21.786Z,0
2016-12-29T05:48:21.767Z,0
2016-12-29T05:49:21.769Z,0
2016-12-29T05:50:21.728Z,0
2016-12-29T05:51:21.742Z,0
2016-12-29T05:52:21.731Z,0
2016-12-29T05:53:21.760Z,0
2016-12-29T05:54:21.741Z,0
2016-12-29T05:55:21.732Z,0
2016-12-29T05:56:21.727Z,0
2016-12-29T05:57:21.735Z,0
2016-12-29T05:58:21.768Z,0
2016-12-29T05:59:21.734Z,0
2016-12-29T06:00:21.770Z,0
2016-12-29T06:01:21.760Z,0
2016-12-29T06:02:21.767Z,0
2016-12-29T06:03:21.774Z,0
2016-12-29T06:04:21.721Z,0
2016-12-29T06:05:21.759Z,0
2016-12-29T06:06:21.736Z,0
2016-12-29T06:07:21.751Z,0
2016-12-29T06:08:21.769Z,0
2016-12-29T06:09:21.786Z,0
2016-12-29T06:10:21.764Z,0
2016-12-29T06:11:21.793Z,0
2016-12-29T06:12:21.812Z,0
2016-12-29T06:13:21.898Z,0
2016-12-29T06:14:21.764Z,0
2016-12-29T06:15:21.756Z,0
2016-12-29T06:16:21.733Z,0
2016-12-29T06:17:21.746Z,0
2016-12-29T06:18:21.816Z,0
2016-12-29T06:19:21.749Z,0
2016-12-29T06:20:21.731Z,0
2016-12-29T06:21:21.725Z,0
2016-12-29T06:22:21.745Z,0
2016-12-29T06:23:21.800Z,0
2016-12-29T06:24:21.769Z,0
2016-12-29T06:25:21.758Z,0
2016-12-29T06:26:21.741Z,0
2016-12-29T06:27:21.739Z,0
2016-12-29T06:28:21.760Z,0
2016-12-29T06:29:21.752Z,0
2016-12-29T06:30:21.774Z,0
2016-12-29T06:31:21.765Z,0
2016-12-29T06:32:21.812Z,0
2016-12-29T06:33:21.813Z,0
2016-12-29T06:34:21.747Z,0
2016-12-29T06:35:21.784Z,0
2016-12-29T06:36:21.772Z,0
2016-12-29T06:37:21.824Z,0
2016-12-29T06:38:21.777Z,0
2016-12-29T06:39:21.760Z,0
2016-12-29T06:40:21.786Z,0
2016-12-29T06:41:21.797Z,0
2016-12-29T06:42:21.792Z,0
2016-12-29T06:43:21.795Z,0
2016-12-29T06:44:21.801Z,0
2016-12-29T06:45:21.808Z,0
2016-12-29T06:46:21.847Z,0
2016-12-29T06:47:22.532Z,0
2016-12-29T06:48:21.786Z,0
2016-12-29T06:49:21.796Z,0
2016-12-29T06:50:21.783Z,0
2016-12-29T06:51:21.819Z,0
2016-12-29T06:52:21.788Z,0
2016-12-29T06:53:21.851Z,0
2016-12-29T06:54:21.771Z,0
2016-12-29T06:55:21.822Z,0
2016-12-29T06:56:21.806Z,0
2016-12-29T06:57:21.807Z,0
2016-12-29T06:58:21.805Z,0
2016-12-29T06:59:21.801Z,0
2016-12-29T07:00:21.769Z,0
2016-12-29T07:01:21.774Z,0
2016-12-29T07:02:21.782Z,0
2016-12-29T07:03:21.789Z,0
2016-12-29T07:04:21.768Z,0
2016-12-29T07:05:21.802Z,0
2016-12-29T07:06:21.774Z,0
2016-12-29T07:07:21.773Z,0
2016-12-29T07:08:21.787Z,0
2016-12-29T07:09:21.780Z,0
2016-12-29T07:10:21.758Z,0
2016-12-29T07:11:21.809Z,0
2016-12-29T07:12:21.787Z,0
2016-12-29T07:13:21.829Z,0
2016-12-29T07:14:21.799Z,0
2016-12-29T07:15:21.786Z,0
2016-12-29T07:16:21.750Z,0
2016-12-29T07:17:21.855Z,0
2016-12-29T07:18:21.830Z,0
2016-12-29T07:19:21.785Z,0
2016-12-29T07:20:21.789Z,0
2016-12-29T07:21:21.770Z,0
2016-12-29T07:22:21.813Z,0
2016-12-29T07:23:21.815Z,0
2016-12-29T07:24:21.774Z,0
2016-12-29T07:25:21.797Z,0
2016-12-29T07:26:21.834Z,0
2016-12-29T07:27:21.871Z,0
2016-12-29T07:28:21.815Z,0
2016-12-29T07:29:21.778Z,0
2016-12-29T07:30:21.799Z,0
2016-12-29T07:31:21.793Z,0
2016-12-29T07:32:21.904Z,0
2016-12-29T07:33:21.821Z,5
2016-12-29T07:34:21.835Z,5
2016-12-29T07:35:21.805Z,5
2016-12-29T07:36:21.841Z,5
2016-12-29T07:37:21.974Z,5
2016-12-29T07:38:21.887Z,5
2016-12-29T07:39:21.834Z,5
2016-12-29T07:40:21.828Z,5
2016-12-29T07:41:21.800Z,5
2016-12-29T07:42:21.880Z,5
2016-12-29T07:43:21.921Z,10
2016-12-29T07:44:21.856Z,10
2016-12-29T07:45:21.848Z,10
2016-12-29T07:46:21.824Z,10
2016-12-29T07:47:21.889Z,10
2016-12-29T07:48:21.817Z,10
2016-12-29T07:49:21.848Z,10
2016-12-29T07:50:21.866Z,10
2016-12-29T07:51:21.898Z,15
2016-12-29T07:52:21.960Z,15
2016-12-29T07:53:21.911Z,15
2016-12-29T07:54:21.833Z,15
2016-12-29T07:55:21.801Z,15
2016-12-29T07:56:21.807Z,15
2016-12-29T07:57:21.873Z,15
2016-12-29T07:58:21.821Z,20
2016-12-29T07:59:21.813Z,20
2016-12-29T08:00:21.805Z,20
2016-12-29T08:01:21.796Z,20
2016-12-29T08:02:21.887Z,20
2016-12-29T08:03:21.796Z,20
2016-12-29T08:04:21.803Z,20
2016-12-29T08:05:21.781Z,25
2016-12-29T08:06:21.818Z,25
2016-12-29T08:07:21.840Z,25
2016-12-29T08:08:21.830Z,25
2016-12-29T08:09:21.806Z,25
2016-12-29T08:10:21.860Z,25
2016-12-29T08:11:21.823Z,25
2016-12-29T08:12:21.842Z,30
2016-12-29T08:13:21.904Z,30
2016-12-29T08:14:21.856Z,30
2016-12-29T08:15:21.818Z,30
2016-12-29T08:16:21.885Z,30
2016-12-29T08:17:21.941Z,30
2016-12-29T08:18:21.920Z,30
2016-12-29T08:19:21.925Z,35
2016-12-29T08:20:21.909Z,35
2016-12-29T08:21:21.892Z,35
2016-12-29T08:22:21.883Z,35
2016-12-29T08:23:21.890Z,35
2016-12-29T08:24:21.875Z,35
2016-12-29T08:25:21.863Z,35
2016-12-29T08:26:21.835Z,35
2016-12-29T08:27:21.846Z,40
2016-12-29T08:28:21.847Z,40
2016-12-29T08:29:21.886Z,40
2016-12-29T08:30:21.823Z,40
2016-12-29T08:31:21.810Z,40
2016-12-29T08:32:21.832Z,40
2016-12-29T08:33:21.826Z,40
2016-12-29T08:34:21.846Z,40
2016-12-29T08:35:21.824Z,40
2016-12-29T08:36:21.816Z,45
2016-12-29T08:37:21.837Z,45
2016-12-29T08:38:21.852Z,45
2016-12-29T08:39:21.837Z,45
2016-12-29T08:40:21.840Z,45
2016-12-29T08:41:21.850Z,45
2016-12-29T08:42:21.826Z,45
2016-12-29T08:43:21.885Z,45
2016-12-29T08:44:21.812Z,45
2016-12-29T08:45:21.846Z,50
2016-12-29T08:46:21.844Z,50
2016-12-29T08:47:21.829Z,50
2016-12-29T08:48:22.481Z,50
2016-12-29T08:49:21.803Z,50
2016-12-29T08:50:21.854Z,50
2016-12-29T08:51:21.803Z,50
2016-12-29T08:52:21.832Z,50
2016-12-29T08:53:21.847Z,50
2016-12-29T08:54:21.825Z,50
2016-12-29T08:55:21.845Z,50
2016-12-29T08:56:21.830Z,55
2016-12-29T08:57:21.859Z,55
2016-12-29T08:58:21.866Z,55
2016-12-29T08:59:21.842Z,55
2016-12-29T09:00:21.816Z,55
2016-12-29T09:01:21.839Z,55
2016-12-29T09:02:21.814Z,55
2016-12-29T09:03:22.114Z,55
2016-12-29T09:04:21.885Z,55
2016-12-29T09:05:21.812Z,55
2016-12-29T09:06:21.842Z,55
2016-12-29T09:07:21.929Z,55
2016-12-29T09:08:21.876Z,55
2016-12-29T09:09:21.836Z,60
2016-12-29T09:10:21.866Z,60
2016-12-29T09:11:21.829Z,60
2016-12-29T09:12:21.836Z,60
2016-12-29T09:13:21.871Z,60
2016-12-29T09:14:21.867Z,60
2016-12-29T09:15:21.905Z,60
2016-12-29T09:16:21.864Z,60
2016-12-29T09:17:21.855Z,60
2016-12-29T09:18:21.864Z,60
2016-12-29T09:19:21.841Z,60
2016-12-29T09:20:21.846Z,60
2016-12-29T09:21:21.899Z,60
2016-12-29T09:22:21.905Z,65
2016-12-29T09:23:21.876Z,65
2016-12-29T09:24:21.904Z,65
2016-12-29T09:25:21.904Z,65
2016-12-29T09:26:21.869Z,65
2016-12-29T09:27:21.879Z,65
2016-12-29T09:28:21.925Z,65
2016-12-29T09:29:21.893Z,65
2016-12-29T09:30:21.842Z,65
2016-12-29T09:31:21.866Z,65
2016-12-29T09:32:22.010Z,65
2016-12-29T09:33:21.880Z,65
2016-12-29T09:34:21.853Z,65
2016-12-29T09:35:21.900Z,65
2016-12-29T09:36:21.854Z,65
2016-12-29T09:37:21.860Z,70
2016-12-29T09:38:21.869Z,70
2016-12-29T09:39:21.832Z,70
2016-12-29T09:40:21.838Z,70
2016-12-29T09:41:21.860Z,70
2016-12-29T09:42:21.882Z,70
2016-12-29T09:43:21.873Z,70
2016-12-29T09:44:22.077Z,70
2016-12-29T09:45:21.922Z,70
2016-12-29T09:46:21.884Z,70
2016-12-29T09:47:21.876Z,70
2016-12-29T09:48:21.911Z,70
2016-12-29T09:49:21.861Z,75
2016-12-29T09:50:21.909Z,75
2016-12-29T09:51:21.919Z,75
2016-12-29T09:52:21.866Z,75
2016-12-29T09:53:21.934Z,75
2016-12-29T09:54:21.892Z,75
2016-12-29T09:55:22.005Z,75
2016-12-29T09:56:21.917Z,80
2016-12-29T09:57:21.925Z,80
2016-12-29T09:58:21.890Z,80
2016-12-29T09:59:21.893Z,80
2016-12-29T10:00:21.872Z,80
2016-12-29T10:01:21.870Z,80
2016-12-29T10:02:21.871Z,80
2016-12-29T10:03:21.893Z,80
2016-12-29T10:04:21.870Z,85
2016-12-29T10:05:21.893Z,85
2016-12-29T10:06:21.870Z,85
2016-12-29T10:07:21.895Z,85
2016-12-29T10:08:21.934Z,85
2016-12-29T10:09:21.891Z,85
2016-12-29T10:10:21.910Z,85
2016-12-29T10:11:21.887Z,85
2016-12-29T10:12:21.928Z,85
2016-12-29T10:13:21.921Z,85
2016-12-29T10:14:21.899Z,85
2016-12-29T10:15:21.877Z,85
2016-12-29T10:16:21.876Z,85
2016-12-29T10:17:21.880Z,85
2016-12-29T10:18:21.896Z,85
2016-12-29T10:19:21.887Z,90
2016-12-29T10:20:21.871Z,85
2016-12-29T10:21:21.862Z,85
2016-12-29T10:22:21.959Z,90
2016-12-29T10:23:21.884Z,90
2016-12-29T10:24:21.891Z,90
2016-12-29T10:25:21.886Z,90
2016-12-29T10:26:21.932Z,90
2016-12-29T10:27:21.885Z,90
2016-12-29T10:28:21.932Z,90
2016-12-29T10:29:21.882Z,90
2016-12-29T10:30:21.915Z,90
2016-12-29T10:31:21.897Z,90
2016-12-29T10:32:21.897Z,90
2016-12-29T10:33:21.925Z,90
2016-12-29T10:34:21.946Z,90
2016-12-29T10:35:21.922Z,90
2016-12-29T10:36:21.900Z,90
2016-12-29T10:37:21.901Z,90
2016-12-29T10:38:22.259Z,90
2016-12-29T10:39:21.914Z,90
2016-12-29T10:40:22.003Z,90
2016-12-29T10:41:21.947Z,90
2016-12-29T10:42:21.924Z,90
2016-12-29T10:43:21.971Z,90
2016-12-29T10:44:21.948Z,90
2016-12-29T10:45:21.903Z,90
2016-12-29T10:46:22.000Z,90
2016-12-29T10:47:22.590Z,90
2016-12-29T10:48:21.980Z,90
2016-12-29T10:49:22.139Z,90
2016-12-29T10:50:21.998Z,90
2016-12-29T10:51:21.996Z,90
2016-12-29T10:52:22.060Z,90
2016-12-29T10:53:22.019Z,90
2016-12-29T10:54:21.966Z,90
2016-12-29T10:55:21.925Z,90
2016-12-29T10:56:21.916Z,90
2016-12-29T10:57:21.984Z,90
2016-12-29T10:58:22.223Z,90
2016-12-29T10:59:22.056Z,90
2016-12-29T11:00:22.026Z,90
2016-12-29T11:01:22.054Z,90
2016-12-29T11:02:21.993Z,90
2016-12-29T11:03:21.936Z,90
2016-12-29T11:04:21.929Z,90
2016-12-29T11:05:21.944Z,90
2016-12-29T11:06:22.082Z,90
2016-12-29T11:07:21.977Z,90
2016-12-29T11:08:22.139Z,90
2016-12-29T11:09:21.955Z,90
2016-12-29T11:10:21.904Z,90
2016-12-29T11:11:21.915Z,90
2016-12-29T11:12:21.993Z,90
2016-12-29T11:13:21.994Z,90
2016-12-29T11:14:22.029Z,90
2016-12-29T11:15:21.911Z,90
2016-12-29T11:16:22.033Z,90
2016-12-29T11:17:21.945Z,95
2016-12-29T11:18:21.937Z,90
2016-12-29T11:19:21.945Z,95
2016-12-29T11:20:22.007Z,95
2016-12-29T11:21:21.949Z,95
2016-12-29T11:22:21.949Z,95
2016-12-29T11:23:22.061Z,95
2016-12-29T11:24:22.466Z,95
2016-12-29T11:25:21.952Z,95
2016-12-29T11:26:21.971Z,95
2016-12-29T11:27:22.828Z,95
2016-12-29T11:28:22.000Z,95
2016-12-29T11:29:22.284Z,95
2016-12-29T11:30:22.420Z,95
2016-12-29T11:31:22.239Z,95
2016-12-29T11:32:22.557Z,95
2016-12-29T11:33:21.946Z,95
2016-12-29T11:34:22.000Z,95
2016-12-29T11:35:21.972Z,95
2016-12-29T11:36:21.957Z,95
2016-12-29T11:37:22.328Z,95
2016-12-29T11:38:21.994Z,95
2016-12-29T11:39:21.964Z,95
2016-12-29T11:40:21.957Z,95
2016-12-29T11:41:21.990Z,95
2016-12-29T11:42:21.978Z,95
2016-12-29T11:43:22.001Z,95
2016-12-29T11:44:22.019Z,95
2016-12-29T11:45:21.974Z,95
2016-12-29T11:46:22.001Z,95
2016-12-29T11:47:22.045Z,95
2016-12-29T11:48:22.008Z,95
2016-12-29T11:49:22.000Z,95
2016-12-29T11:50:21.993Z,95
2016-12-29T11:51:21.998Z,95
2016-12-29T11:52:23.043Z,95
2016-12-29T11:53:21.985Z,95
2016-12-29T11:54:21.963Z,95
2016-12-29T11:55:21.955Z,95
2016-12-29T11:56:22.005Z,95
2016-12-29T11:57:22.012Z,95
2016-12-29T11:58:22.003Z,95
2016-12-29T11:59:21.984Z,95
2016-12-29T12:00:22.002Z,95
2016-12-29T12:01:21.996Z,95
2016-12-29T12:02:22.000Z,95
2016-12-29T12:03:21.995Z,95
2016-12-29T12:04:21.978Z,95
2016-12-29T12:05:22.035Z,95
2016-12-29T12:06:22.041Z,95
2016-12-29T12:07:22.007Z,95
2016-12-29T12:08:21.977Z,95
2016-12-29T12:09:21.968Z,95
2016-12-29T12:10:21.958Z,95
2016-12-29T12:11:21.960Z,95
2016-12-29T12:12:21.955Z,95
2016-12-29T12:13:22.023Z,95
2016-12-29T12:14:21.952Z,95
2016-12-29T12:15:21.980Z,95
2016-12-29T12:16:21.965Z,95
2016-12-29T12:17:21.957Z,95
2016-12-29T12:18:22.007Z,95
2016-12-29T12:19:22.437Z,95
2016-12-29T12:20:21.993Z,95
2016-12-29T12:21:21.978Z,95
2016-12-29T12:22:21.991Z,95
2016-12-29T12:23:21.998Z,95
2016-12-29T12:24:21.997Z,90
2016-12-29T12:25:22.018Z,90
2016-12-29T12:26:21.972Z,90
2016-12-29T12:27:21.975Z,90
2016-12-29T12:28:21.996Z,90
2016-12-29T12:29:21.995Z,90
2016-12-29T12:30:21.964Z,90
2016-12-29T12:31:22.017Z,90
2016-12-29T12:32:22.011Z,90
2016-12-29T12:33:22.096Z,90
2016-12-29T12:34:22.032Z,90
2016-12-29T12:35:22.136Z,90
2016-12-29T12:36:22.109Z,90
2016-12-29T12:37:22.017Z,90
2016-12-29T12:38:21.988Z,90
2016-12-29T12:39:22.017Z,90
2016-12-29T12:40:22.025Z,90
2016-12-29T12:41:22.270Z,90
2016-12-29T12:42:22.048Z,90
2016-12-29T12:43:22.037Z,90
2016-12-29T12:44:21.993Z,90
2016-12-29T12:45:22.220Z,90
2016-12-29T12:46:22.093Z,90
2016-12-29T12:47:21.984Z,90
2016-12-29T12:48:22.003Z,90
2016-12-29T12:49:22.014Z,90
2016-12-29T12:50:22.117Z,90
2016-12-29T12:51:22.364Z,90
2016-12-29T12:52:22.635Z,90
2016-12-29T12:53:22.300Z,90
2016-12-29T12:54:22.050Z,90
2016-12-29T12:55:22.129Z,90
2016-12-29T12:56:22.009Z,90
2016-12-29T12:57:22.299Z,90
2016-12-29T12:58:22.040Z,85
2016-12-29T12:59:24.023Z,85
2016-12-29T13:00:22.263Z,85
2016-12-29T13:01:21.983Z,85
2016-12-29T13:02:22.007Z,85
2016-12-29T13:03:22.046Z,85
2016-12-29T13:04:22.012Z,85
2016-12-29T13:05:22.382Z,85
2016-12-29T13:06:22.032Z,85
2016-12-29T13:07:21.987Z,85
2016-12-29T13:08:22.028Z,85
2016-12-29T13:09:22.155Z,85
2016-12-29T13:10:22.028Z,85
2016-12-29T13:11:22.241Z,85
2016-12-29T13:12:21.985Z,85
2016-12-29T13:13:22.078Z,85
2016-12-29T13:14:22.034Z,85
2016-12-29T13:15:22.019Z,85
2016-12-29T13:16:21.989Z,85
2016-12-29T13:17:21.990Z,85
2016-12-29T13:18:22.034Z,85
2016-12-29T13:19:22.034Z,80
2016-12-29T13:20:22.040Z,80
2016-12-29T13:21:22.030Z,80
2016-12-29T13:22:22.197Z,80
2016-12-29T13:23:22.063Z,80
2016-12-29T13:24:22.040Z,80
2016-12-29T13:25:22.002Z,80
2016-12-29T13:26:22.023Z,80
2016-12-29T13:27:22.003Z,80
2016-12-29T13:28:22.053Z,80
2016-12-29T13:29:21.999Z,80
2016-12-29T13:30:22.007Z,80
2016-12-29T13:31:22.027Z,80
2016-12-29T13:32:22.124Z,80
2016-12-29T13:33:22.059Z,80
2016-12-29T13:34:22.062Z,80
2016-12-29T13:35:22.072Z,80
2016-12-29T13:36:22.019Z,75
2016-12-29T13:37:22.091Z,75
2016-12-29T13:38:22.058Z,75
2016-12-29T13:39:22.025Z,75
2016-12-29T13:40:22.029Z,75
2016-12-29T13:41:22.032Z,75
2016-12-29T13:42:22.006Z,75
2016-12-29T13:43:22.130Z,75
2016-12-29T13:44:22.027Z,75
2016-12-29T13:45:22.042Z,75
2016-12-29T13:46:22.018Z,75
2016-12-29T13:47:22.022Z,75
2016-12-29T13:48:22.091Z,75
2016-12-29T13:49:22.042Z,70
2016-12-29T13:50:22.032Z,70
2016-12-29T13:51:22.051Z,70
2016-12-29T13:52:22.059Z,70
2016-12-29T13:53:22.077Z,70
2016-12-29T13:54:22.043Z,70
2016-12-29T13:55:22.048Z,70
2016-12-29T13:56:22.114Z,70
2016-12-29T13:57:22.084Z,70
2016-12-29T13:58:22.068Z,70
2016-12-29T13:59:22.105Z,70
2016-12-29T14:00:22.133Z,70
2016-12-29T14:01:22.033Z,65
2016-12-29T14:02:22.067Z,65
2016-12-29T14:03:22.060Z,65
2016-12-29T14:04:22.053Z,65
2016-12-29T14:05:22.083Z,65
2016-12-29T14:06:22.085Z,65
2016-12-29T14:07:22.095Z,65
2016-12-29T14:08:22.087Z,65
2016-12-29T14:09:22.123Z,65
2016-12-29T14:10:22.072Z,60
2016-12-29T14:11:22.080Z,60
2016-12-29T14:12:22.072Z,60
2016-12-29T14:13:22.074Z,60
2016-12-29T14:14:22.097Z,60
2016-12-29T14:15:22.032Z,60
2016-12-29T14:16:22.038Z,60
2016-12-29T14:17:22.073Z,60
2016-12-29T14:18:22.097Z,60
2016-12-29T14:19:22.066Z,60
2016-12-29T14:20:22.045Z,55
2016-12-29T14:21:22.053Z,55
2016-12-29T14:22:22.062Z,55
2016-12-29T14:23:22.081Z,55
2016-12-29T14:24:22.050Z,55
2016-12-29T14:25:22.053Z,55
2016-12-29T14:26:22.048Z,55
2016-12-29T14:27:22.025Z,55
2016-12-29T14:28:22.074Z,50
2016-12-29T14:29:22.099Z,50
2016-12-29T14:30:22.045Z,50
2016-12-29T14:31:22.065Z,50
2016-12-29T14:32:22.060Z,50